Time;durP1;ratioP1;P1;durP2;ratioP2;P2;SDS_P1;SDS_P2;PMS_P1;PMS_P2;Temp;Humidity;BMP_temperature;BMP_pressure;BME280_temperature;BME280_humidity;BME280_pressure;Samples;Min_cycle;Max_cycle;Signal;HPM_P1;HPM_P2
2023/01/20 00:01:10;;;;;;;23.10;7.10;;;;;;;12.23;70.43;99890.96;107378;1265;60168;-74
2023/01/20 00:03:40;;;;;;;16.30;6.80;;;;;;;12.24;70.14;99884.64;107403;1266;73469;-74
2023/01/20 00:06:08;;;;;;;19.40;7.80;;;;;;;12.33;69.76;99881.91;107592;1260;74241;-75
2023/01/20 00:08:35;;;;;;;22.70;7.80;;;;;;;12.31;69.42;99885.45;107625;1260;73431;-75
2023/01/20 00:11:06;;;;;;;23.30;7.70;;;;;;;12.27;69.38;99888.40;107540;1260;62710;-74
2023/01/20 00:13:34;;;;;;;22.00;7.50;;;;;;;12.24;69.20;99886.45;107597;1260;60498;-74
2023/01/20 00:16:06;;;;;;;19.60;8.20;;;;;;;12.21;69.06;99883.33;107617;1260;73054;-74
2023/01/20 00:18:33;;;;;;;22.50;8.80;;;;;;;12.11;69.14;99883.31;107614;1260;73212;-75
2023/01/20 00:21:05;;;;;;;23.80;8.70;;;;;;;11.95;69.43;99886.27;107740;1257;74957;-75
2023/01/20 00:23:32;;;;;;;20.60;8.00;;;;;;;11.88;69.56;99888.58;107909;1257;64035;-75
2023/01/20 00:26:07;;;;;;;21.10;8.20;;;;;;;11.83;69.47;99889.99;107851;1256;61404;-75
2023/01/20 00:28:34;;;;;;;19.00;7.30;;;;;;;11.77;69.54;99891.63;107883;1256;73638;-75
2023/01/20 00:31:18;;;;;;;23.10;8.70;;;;;;;11.73;69.59;99888.52;107890;1257;73588;-75
2023/01/20 00:33:46;;;;;;;30.10;9.00;;;;;;;11.74;69.55;99886.66;107880;1257;73697;-75
2023/01/20 00:36:14;;;;;;;27.00;9.30;;;;;;;11.74;69.51;99889.95;107886;1257;63931;-74
2023/01/20 00:38:41;;;;;;;26.20;9.20;;;;;;;11.72;69.52;99895.48;107845;1256;60751;-74
2023/01/20 00:41:09;;;;;;;25.40;8.50;;;;;;;11.68;69.55;99892.89;107875;1257;74952;-74
2023/01/20 00:43:36;;;;;;;29.90;8.20;;;;;;;11.64;69.59;99885.54;107806;1256;74704;-74
2023/01/20 00:46:03;;;;;;;28.40;9.20;;;;;;;11.61;69.75;99883.20;107873;1256;73000;-74
2023/01/20 00:48:30;;;;;;;24.60;9.10;;;;;;;11.59;69.70;99884.73;107834;1257;60487;-74
2023/01/20 00:50:58;;;;;;;19.80;7.20;;;;;;;11.55;69.74;99885.98;107821;1257;60129;-74
2023/01/20 00:53:25;;;;;;;20.60;6.90;;;;;;;11.51;69.78;99888.36;107773;1257;72258;-74
2023/01/20 00:55:52;;;;;;;25.30;9.30;;;;;;;11.46;70.01;99893.00;107803;1262;71974;-74
2023/01/20 00:58:19;;;;;;;21.50;8.00;;;;;;;11.43;70.07;99893.45;107663;1257;74782;-75
2023/01/20 01:00:47;;;;;;;22.40;7.60;;;;;;;11.46;70.08;99887.77;107885;1262;63033;-75
2023/01/20 01:03:14;;;;;;;24.40;8.30;;;;;;;11.40;70.23;99885.23;107925;1256;59409;-73
2023/01/20 01:05:42;;;;;;;25.10;8.30;;;;;;;11.37;70.33;99883.06;107910;1256;74989;-74
2023/01/20 01:08:11;;;;;;;32.50;8.50;;;;;;;11.35;70.35;99880.04;107952;1257;74798;-74
2023/01/20 01:10:39;;;;;;;25.00;8.70;;;;;;;11.34;70.42;99879.61;107907;1256;74405;-74
2023/01/20 01:13:06;;;;;;;22.50;7.80;;;;;;;11.32;70.45;99882.20;107795;1257;60760;-75
2023/01/20 01:15:33;;;;;;;20.50;7.80;;;;;;;11.30;70.31;99885.36;107896;1256;61070;-73
2023/01/20 01:18:00;;;;;;;23.40;7.40;;;;;;;11.28;70.39;99888.95;107887;1257;72112;-74
2023/01/20 01:20:27;;;;;;;28.20;9.00;;;;;;;11.29;70.39;99885.80;107859;1256;75020;-74
2023/01/20 01:22:54;;;;;;;21.10;7.10;;;;;;;11.27;70.50;99881.04;107885;1257;74805;-73
2023/01/20 01:25:22;;;;;;;23.60;7.10;;;;;;;11.27;70.28;99873.41;107864;1257;64237;-74
2023/01/20 01:27:49;;;;;;;17.60;6.30;;;;;;;11.33;70.16;99867.86;107886;1262;61141;-75
2023/01/20 01:30:16;;;;;;;21.40;6.80;;;;;;;11.32;70.03;99875.35;107946;1257;75288;-74
2023/01/20 01:32:43;;;;;;;26.30;7.40;;;;;;;11.30;70.02;99877.97;108046;1256;73124;-73
2023/01/20 01:35:10;;;;;;;23.00;7.40;;;;;;;11.26;69.81;99877.90;107955;1257;71865;-76
2023/01/20 01:37:38;;;;;;;18.70;5.90;;;;;;;11.22;69.74;99879.95;107943;1257;61651;-74
2023/01/20 01:40:06;;;;;;;17.50;6.40;;;;;;;11.17;69.57;99881.21;107898;1256;61564;-74
2023/01/20 01:42:33;;;;;;;24.00;7.40;;;;;;;11.14;69.63;99882.36;107882;1261;75402;-73
2023/01/20 01:45:09;;;;;;;20.70;6.80;;;;;;;11.11;69.57;99878.10;107928;1257;73542;-74
2023/01/20 01:47:41;;;;;;;21.00;6.50;;;;;;;11.05;69.66;99873.02;107898;1256;72631;-75
2023/01/20 01:50:11;;;;;;;25.40;8.10;;;;;;;11.00;69.69;99868.17;107889;1258;62672;-74
2023/01/20 01:52:39;;;;;;;20.40;7.50;;;;;;;10.96;69.72;99868.26;107891;1257;59647;-74
2023/01/20 01:55:06;;;;;;;21.10;6.90;;;;;;;10.93;69.82;99870.46;107859;1257;75069;-74
2023/01/20 01:57:33;;;;;;;22.00;7.30;;;;;;;10.91;69.83;99878.42;107687;1257;74164;-74
2023/01/20 02:00:01;;;;;;;22.90;7.50;;;;;;;10.87;69.98;99884.39;107701;1257;75012;-75
2023/01/20 02:02:40;;;;;;;23.60;7.70;;;;;;;10.85;69.90;99885.52;107689;1258;63337;-75
2023/01/20 02:05:07;;;;;;;21.80;7.20;;;;;;;10.84;69.97;99886.64;107869;1257;60233;-75
2023/01/20 02:07:35;;;;;;;23.70;7.20;;;;;;;10.73;70.31;99890.17;107699;1257;74883;-76
2023/01/20 02:10:02;;;;;;;17.40;6.60;;;;;;;10.71;70.48;99888.84;107854;1257;73459;-74
2023/01/20 02:12:29;;;;;;;24.00;7.70;;;;;;;10.70;70.65;99890.50;107848;1260;73106;-74
2023/01/20 02:14:57;;;;;;;25.00;8.60;;;;;;;10.69;70.48;99889.92;107852;1260;60355;-74
2023/01/20 02:17:54;;;;;;;22.50;7.50;;;;;;;10.68;70.30;99884.52;107892;1257;60581;-75
2023/01/20 02:20:24;;;;;;;23.80;8.60;;;;;;;10.64;70.19;99881.92;107924;1257;74080;-74
2023/01/20 02:23:10;;;;;;;21.50;7.90;;;;;;;10.54;70.29;99890.62;107926;1257;73802;-74
2023/01/20 02:26:18;;;;;;;24.70;8.30;;;;;;;10.48;70.46;99894.75;107817;1262;71201;-74
2023/01/20 02:29:23;;;;;;;19.80;7.40;;;;;;;10.41;70.56;99895.69;107783;1257;61202;-74
2023/01/20 02:32:07;;;;;;;22.10;7.40;;;;;;;10.36;70.65;99903.70;107834;1257;60636;-74
2023/01/20 02:35:10;;;;;;;19.60;6.80;;;;;;;10.30;70.75;99903.46;107860;1257;73072;-74
2023/01/20 02:37:42;;;;;;;18.40;7.10;;;;;;;10.29;70.84;99902.61;107787;1258;73578;-74
2023/01/20 02:40:28;;;;;;;23.80;6.50;;;;;;;10.25;71.05;99902.21;107809;1257;72298;-74
2023/01/20 02:43:28;;;;;;;19.80;7.00;;;;;;;10.25;71.07;99900.83;107801;1257;63657;-75
2023/01/20 02:46:02;;;;;;;21.10;6.50;;;;;;;10.19;71.14;99906.59;107703;1257;60319;-76
2023/01/20 02:48:38;;;;;;;20.90;7.20;;;;;;;10.11;71.30;99910.25;107760;1257;75269;-75
2023/01/20 02:51:12;;;;;;;14.10;5.90;;;;;;;10.13;71.42;99925.33;107835;1257;74668;-76
2023/01/20 02:54:10;;;;;;;18.30;7.00;;;;;;;10.10;71.59;99930.05;107879;1257;74628;-75
2023/01/20 02:56:37;;;;;;;19.50;6.80;;;;;;;10.14;71.68;99928.33;107871;1259;63025;-75
2023/01/20 02:59:07;;;;;;;17.70;6.50;;;;;;;10.18;71.79;99930.35;107660;1257;60318;-74
2023/01/20 03:01:48;;;;;;;18.10;6.10;;;;;;;10.25;71.74;99932.38;107830;1257;73101;-76
2023/01/20 03:04:18;;;;;;;20.60;6.90;;;;;;;10.27;71.78;99935.27;107860;1257;74929;-75
2023/01/20 03:06:47;;;;;;;17.30;6.30;;;;;;;10.28;71.70;99932.50;107805;1257;73984;-76
2023/01/20 03:09:17;;;;;;;18.40;6.80;;;;;;;10.26;71.51;99933.73;107831;1260;63874;-75
2023/01/20 03:11:50;;;;;;;17.80;6.40;;;;;;;10.24;71.58;99934.13;107837;1257;61982;-75
2023/01/20 03:14:17;;;;;;;19.10;6.50;;;;;;;10.20;71.37;99937.02;107777;1257;74100;-75
2023/01/20 03:16:47;;;;;;;17.30;6.40;;;;;;;10.10;71.20;99942.73;107909;1257;73884;-75
2023/01/20 03:19:14;;;;;;;20.30;6.80;;;;;;;10.02;71.23;99947.55;107853;1257;73453;-74
2023/01/20 03:21:41;;;;;;;17.30;7.00;;;;;;;10.01;71.28;99945.41;107785;1257;63463;-76
2023/01/20 03:24:08;;;;;;;17.90;6.40;;;;;;;10.04;71.48;99940.29;107656;1257;60221;-75
2023/01/20 03:26:35;;;;;;;21.40;6.90;;;;;;;10.05;71.52;99947.27;107840;1257;72118;-75
2023/01/20 03:29:08;;;;;;;19.00;6.40;;;;;;;10.09;71.69;99945.63;107818;1257;72779;-76
2023/01/20 03:31:40;;;;;;;14.20;6.10;;;;;;;10.12;71.77;99949.95;107749;1257;72899;-75
2023/01/20 03:34:09;;;;;;;;;;;;;;;10.15;71.67;99950.26;107943;1257;63450;-75
2023/01/20 03:36:37;;;;;;;15.60;5.90;;;;;;;10.18;71.69;99956.39;107811;1257;61136;-75
2023/01/20 03:39:05;;;;;;;15.30;6.00;;;;;;;10.26;71.56;99964.95;107787;1257;75921;-76
2023/01/20 03:41:42;;;;;;;16.40;6.60;;;;;;;10.39;71.27;99969.59;107826;1257;75679;-76
2023/01/20 03:44:15;;;;;;;17.90;6.60;;;;;;;10.43;71.02;99973.41;107802;1257;74633;-75
2023/01/20 03:47:19;;;;;;;19.20;6.80;;;;;;;10.46;70.94;99969.73;107818;1258;60352;-76
2023/01/20 03:50:01;;;;;;;17.70;6.70;;;;;;;10.46;70.83;99968.83;107892;1256;62373;-77
2023/01/20 03:52:28;;;;;;;16.20;6.50;;;;;;;10.45;70.68;99979.34;107965;1256;73904;-75
2023/01/20 03:55:49;;;;;;;18.40;6.00;;;;;;;10.43;70.59;99984.21;107910;1258;73695;-75
2023/01/20 03:58:20;;;;;;;16.20;6.40;;;;;;;10.43;70.52;99993.50;107749;1257;74201;-74
2023/01/20 04:00:47;;;;;;;15.40;5.90;;;;;;;10.41;70.44;100000.55;107972;1256;63321;-74
2023/01/20 04:03:20;;;;;;;13.20;5.20;;;;;;;10.42;70.41;100008.82;107941;1257;61347;-75
2023/01/20 04:05:47;;;;;;;16.60;6.10;;;;;;;10.45;70.33;100011.06;107952;1256;74921;-75
2023/01/20 04:08:15;;;;;;;17.30;6.00;;;;;;;10.49;70.28;100012.02;107705;1256;73957;-76
2023/01/20 04:10:44;;;;;;;15.30;5.90;;;;;;;10.53;70.46;100010.52;107745;1259;71990;-75
2023/01/20 04:13:11;;;;;;;18.80;6.90;;;;;;;10.56;70.23;100012.80;107872;1257;60483;-74
2023/01/20 04:15:41;;;;;;;16.10;6.20;;;;;;;10.56;69.95;100015.91;107898;1257;60420;-75
2023/01/20 04:18:14;;;;;;;16.10;5.70;;;;;;;10.46;69.74;100024.24;107904;1256;73927;-76
2023/01/20 04:20:43;;;;;;;19.10;7.80;;;;;;;10.38;69.61;100027.52;107886;1256;74786;-75
2023/01/20 04:23:31;;;;;;;13.30;6.40;;;;;;;10.29;69.63;100027.46;107880;1257;72818;-75
2023/01/20 04:25:58;;;;;;;20.40;6.70;;;;;;;10.22;69.57;100029.41;107785;1258;60679;-75
2023/01/20 04:28:25;;;;;;;16.90;6.40;;;;;;;10.17;69.57;100025.08;107791;1257;62424;-75
2023/01/20 04:30:52;;;;;;;16.10;6.40;;;;;;;10.14;69.70;100030.00;107791;1257;73350;-75
2023/01/20 04:33:19;;;;;;;13.60;5.40;;;;;;;10.08;69.65;100033.14;107822;1257;73115;-74
2023/01/20 04:35:47;;;;;;;16.40;6.30;;;;;;;9.96;69.62;100045.26;107799;1257;73773;-74
2023/01/20 04:38:14;;;;;;;16.80;6.80;;;;;;;9.91;69.77;100050.00;107768;1257;64322;-75
2023/01/20 04:40:41;;;;;;;17.90;5.50;;;;;;;9.90;69.95;100053.61;107888;1256;61116;-74
2023/01/20 04:43:09;;;;;;;15.50;5.60;;;;;;;9.91;70.02;100061.67;107898;1257;74789;-74
2023/01/20 04:45:36;;;;;;;17.30;5.80;;;;;;;9.86;70.32;100063.73;107887;1257;73123;-74
2023/01/20 04:48:07;;;;;;;14.90;6.30;;;;;;;9.79;70.53;100061.29;107842;1256;74630;-74
2023/01/20 04:50:40;;;;;;;16.40;5.30;;;;;;;9.75;70.73;100064.10;107866;1257;63852;-74
2023/01/20 04:53:12;;;;;;;20.50;6.00;;;;;;;9.69;70.71;100066.70;107876;1256;60659;-76
2023/01/20 04:55:39;;;;;;;14.90;5.70;;;;;;;9.60;70.92;100065.88;108096;1256;73101;-76
2023/01/20 04:58:08;;;;;;;14.00;5.10;;;;;;;9.56;70.93;100064.89;107927;1257;73665;-75
2023/01/20 05:00:35;;;;;;;14.70;5.50;;;;;;;9.53;71.10;100065.95;107921;1257;71749;-76
2023/01/20 05:03:02;;;;;;;14.90;5.10;;;;;;;9.50;71.11;100066.21;107803;1257;61520;-75
2023/01/20 05:05:29;;;;;;;16.80;5.70;;;;;;;9.47;71.02;100074.62;107798;1257;61872;-74
2023/01/20 05:07:58;;;;;;;16.10;5.70;;;;;;;9.54;70.98;100077.80;107788;1257;74670;-75
2023/01/20 05:10:25;;;;;;;10.50;5.20;;;;;;;9.56;70.85;100084.25;107815;1257;73344;-75
2023/01/20 05:12:52;;;;;;;13.20;5.30;;;;;;;9.56;70.87;100082.91;107798;1257;72352;-76
2023/01/20 05:15:19;;;;;;;12.10;5.40;;;;;;;9.56;70.79;100084.14;107845;1257;61043;-76
2023/01/20 05:17:46;;;;;;;12.70;5.10;;;;;;;9.58;70.84;100090.51;107881;1257;60370;-76
2023/01/20 05:32:33;;;;;;;15.10;5.80;;;;;;;9.59;71.16;100105.02;105969;1281;613669;-75
2023/01/20 05:35:01;;;;;;;19.60;5.70;;;;;;;9.91;70.65;100111.88;107228;1267;138348;-75
2023/01/20 05:37:28;;;;;;;15.00;4.80;;;;;;;10.00;70.23;100108.44;107308;1266;62207;-76
2023/01/20 05:39:57;;;;;;;12.90;5.20;;;;;;;10.03;69.94;100105.76;107347;1266;71147;-76
2023/01/20 05:42:24;;;;;;;13.10;4.70;;;;;;;10.01;69.89;100107.69;107210;1270;71670;-76
2023/01/20 05:44:51;;;;;;;14.00;5.50;;;;;;;9.96;69.73;100115.94;107360;1267;71848;-75
2023/01/20 05:47:20;;;;;;;14.50;5.40;;;;;;;9.89;69.75;100120.73;107309;1267;62532;-75
2023/01/20 05:49:47;;;;;;;13.60;5.10;;;;;;;9.81;69.73;100122.20;107350;1267;59455;-75
2023/01/20 05:52:14;;;;;;;12.00;4.80;;;;;;;9.76;69.76;100120.53;107295;1267;73162;-75
2023/01/20 05:54:41;;;;;;;15.90;5.70;;;;;;;9.71;69.89;100120.52;107488;1264;72077;-75
2023/01/20 05:57:08;;;;;;;15.00;6.00;;;;;;;9.69;69.97;100124.88;107464;1263;73017;-75
2023/01/20 05:59:35;;;;;;;13.10;5.50;;;;;;;9.68;70.12;100125.30;107490;1263;62767;-76
2023/01/20 06:02:02;;;;;;;16.70;5.80;;;;;;;9.62;70.07;100126.40;107441;1263;61023;-76
2023/01/20 06:04:29;;;;;;;16.90;6.40;;;;;;;9.53;70.02;100122.95;107519;1263;73750;-76
2023/01/20 06:06:56;;;;;;;11.50;4.70;;;;;;;9.46;70.24;100117.55;107463;1263;73336;-75
2023/01/20 06:09:23;;;;;;;18.40;5.80;;;;;;;9.43;70.30;100119.60;107504;1263;72269;-76
2023/01/20 06:11:50;;;;;;;14.00;5.60;;;;;;;9.34;70.45;100125.27;107457;1264;63358;-75
2023/01/20 06:14:17;;;;;;;14.90;5.60;;;;;;;9.27;70.69;100130.88;107492;1268;59687;-75
2023/01/20 06:16:44;;;;;;;14.00;5.40;;;;;;;9.26;70.72;100128.58;107514;1264;73646;-75
2023/01/20 06:19:11;;;;;;;14.60;6.10;;;;;;;9.27;70.90;100130.29;107532;1264;71200;-75
2023/01/20 06:21:39;;;;;;;19.80;6.10;;;;;;;9.29;71.09;100132.96;107443;1264;74737;-75
2023/01/20 06:24:07;;;;;;;18.80;6.30;;;;;;;9.33;71.37;100133.21;107456;1264;61010;-75
2023/01/20 06:26:34;;;;;;;14.80;5.60;;;;;;;9.40;71.54;100138.36;107443;1264;59592;-75
2023/01/20 06:29:01;;;;;;;14.10;5.90;;;;;;;9.46;71.70;100142.27;107444;1264;72351;-76
2023/01/20 06:31:28;;;;;;;13.60;5.20;;;;;;;9.52;71.75;100147.11;107405;1264;72837;-75
2023/01/20 06:33:55;;;;;;;19.20;5.80;;;;;;;9.58;71.81;100147.23;107423;1263;73118;-76
2023/01/20 06:36:22;;;;;;;22.20;6.40;;;;;;;9.65;71.94;100148.02;107366;1263;61390;-75
2023/01/20 06:38:49;;;;;;;15.10;5.80;;;;;;;9.70;72.06;100144.95;107412;1264;61775;-75
2023/01/20 06:41:17;;;;;;;18.90;5.70;;;;;;;9.78;72.19;100147.80;107509;1263;72977;-75
2023/01/20 06:43:44;;;;;;;14.30;5.10;;;;;;;9.86;72.27;100145.85;107504;1264;74725;-75
2023/01/20 06:46:13;;;;;;;13.50;5.60;;;;;;;9.94;72.31;100150.73;107420;1267;70604;-75
2023/01/20 06:48:40;;;;;;;14.50;5.90;;;;;;;10.03;72.40;100158.77;107429;1264;61829;-76
2023/01/20 06:51:13;;;;;;;14.20;4.80;;;;;;;10.14;72.39;100164.17;107435;1263;59601;-76
2023/01/20 06:53:40;;;;;;;14.70;5.50;;;;;;;10.23;72.28;100167.23;107470;1263;72443;-76
2023/01/20 06:56:11;;;;;;;17.80;5.60;;;;;;;10.29;72.22;100163.49;107419;1264;71437;-75
2023/01/20 06:58:39;;;;;;;17.00;5.70;;;;;;;10.36;72.10;100167.34;107441;1263;71970;-75
2023/01/20 07:01:12;;;;;;;13.40;5.60;;;;;;;10.44;72.00;100166.39;107480;1267;62296;-75
2023/01/20 07:03:43;;;;;;;15.80;4.90;;;;;;;10.53;71.98;100168.33;107401;1263;60429;-75
2023/01/20 07:06:27;;;;;;;13.10;5.40;;;;;;;10.61;71.92;100170.67;107438;1264;73435;-77
2023/01/20 07:08:54;;;;;;;14.60;5.40;;;;;;;10.69;71.75;100175.06;107436;1263;74196;-76
2023/01/20 07:11:25;;;;;;;12.50;4.90;;;;;;;10.76;71.58;100177.27;107441;1263;73275;-76
2023/01/20 07:13:52;;;;;;;14.90;5.20;;;;;;;10.78;71.37;100178.54;107445;1264;61666;-75
2023/01/20 07:16:19;;;;;;;14.30;5.30;;;;;;;10.83;71.13;100181.65;107426;1264;59595;-75
2023/01/20 07:18:47;;;;;;;16.80;5.60;;;;;;;10.89;71.05;100175.88;107471;1263;73057;-75
2023/01/20 07:21:14;;;;;;;14.60;5.30;;;;;;;10.92;70.77;100179.34;107402;1263;72803;-75
2023/01/20 07:23:41;;;;;;;14.10;5.50;;;;;;;10.96;70.69;100187.78;107391;1263;72597;-76
2023/01/20 07:26:09;;;;;;;14.50;5.40;;;;;;;11.00;70.55;100199.33;107355;1264;61773;-75
2023/01/20 07:28:36;;;;;;;15.00;5.30;;;;;;;11.08;70.43;100200.45;107425;1263;62331;-75
2023/01/20 07:31:08;;;;;;;16.40;5.80;;;;;;;11.14;70.32;100198.52;107423;1263;75082;-75
2023/01/20 07:33:35;;;;;;;14.00;5.30;;;;;;;11.17;70.16;100193.38;107499;1263;71214;-75
2023/01/20 07:36:02;;;;;;;13.20;5.60;;;;;;;11.19;70.23;100186.85;107406;1267;71233;-75
2023/01/20 07:38:29;;;;;;;13.80;5.40;;;;;;;11.30;70.02;100190.05;107412;1263;60358;-75
2023/01/20 07:41:01;;;;;;;10.90;5.50;;;;;;;11.40;69.86;100189.44;107417;1263;60439;-75
2023/01/20 07:43:30;;;;;;;15.70;6.10;;;;;;;11.47;69.69;100191.92;107425;1263;75042;-75
2023/01/20 07:46:01;;;;;;;15.90;6.20;;;;;;;11.53;69.43;100196.73;107452;1263;72799;-75
2023/01/20 07:48:30;;;;;;;17.10;6.10;;;;;;;11.60;69.32;100199.45;107504;1264;70960;-75
2023/01/20 07:51:02;;;;;;;16.50;6.10;;;;;;;11.66;69.03;100202.15;107459;1267;59720;-74
2023/01/20 07:53:29;;;;;;;13.50;6.40;;;;;;;11.71;68.88;100205.83;107423;1263;59580;-75
2023/01/20 07:55:59;;;;;;;13.90;6.50;;;;;;;11.79;68.76;100207.29;107394;1263;73282;-75
2023/01/20 07:58:27;;;;;;;19.70;7.10;;;;;;;11.84;68.49;100209.01;107389;1264;71363;-75
2023/01/20 08:00:56;;;;;;;15.70;7.20;;;;;;;11.90;68.23;100209.64;107402;1263;70450;-74
2023/01/20 08:03:24;;;;;;;18.50;7.30;;;;;;;11.95;68.09;100210.48;107396;1263;63005;-74
2023/01/20 08:05:53;;;;;;;14.60;6.50;;;;;;;12.02;67.98;100206.05;107420;1264;62022;-75
2023/01/20 08:08:20;;;;;;;18.20;7.10;;;;;;;12.09;67.78;100213.47;107452;1263;72211;-74
2023/01/20 08:10:52;;;;;;;15.50;6.50;;;;;;;12.16;67.31;100210.42;107442;1264;71895;-74
2023/01/20 08:13:20;;;;;;;15.90;7.50;;;;;;;12.21;67.22;100210.89;107440;1266;74430;-74
2023/01/20 08:15:47;;;;;;;17.20;7.50;;;;;;;12.22;66.72;100209.66;107405;1267;61379;-74
2023/01/20 08:18:14;;;;;;;18.60;7.00;;;;;;;12.24;66.54;100216.39;107394;1265;61399;-74
2023/01/20 08:20:42;;;;;;;17.50;7.20;;;;;;;12.27;66.45;100219.90;107409;1265;70781;-75
2023/01/20 08:23:09;;;;;;;16.20;7.30;;;;;;;12.32;66.24;100222.23;107381;1266;73421;-75
2023/01/20 08:25:36;;;;;;;16.30;7.10;;;;;;;12.38;66.05;100222.69;107369;1266;74856;-75
2023/01/20 08:28:03;;;;;;;14.40;7.00;;;;;;;12.45;65.90;100213.90;107381;1266;60913;-75
2023/01/20 08:30:31;;;;;;;17.60;8.30;;;;;;;12.52;65.78;100211.66;107407;1266;61029;-75
2023/01/20 08:32:58;;;;;;;15.70;8.60;;;;;;;12.60;65.60;100207.59;107383;1266;74490;-75
2023/01/20 08:35:25;;;;;;;20.80;8.60;;;;;;;12.67;65.33;100204.33;107363;1267;73154;-75
2023/01/20 08:37:52;;;;;;;17.40;7.50;;;;;;;12.73;64.98;100208.25;107371;1267;71258;-75
2023/01/20 08:40:19;;;;;;;18.50;7.90;;;;;;;12.76;64.59;100217.29;107363;1266;60765;-75
2023/01/20 08:42:46;;;;;;;17.90;7.90;;;;;;;12.76;64.40;100216.54;107367;1265;62146;-75
2023/01/20 08:45:13;;;;;;;17.50;7.00;;;;;;;12.78;64.17;100221.34;107410;1266;71566;-75
2023/01/20 08:47:44;;;;;;;15.50;7.10;;;;;;;12.77;63.94;100224.41;107404;1269;74192;-75
2023/01/20 08:50:13;;;;;;;15.50;7.50;;;;;;;12.77;63.75;100224.10;107424;1267;71368;-75
2023/01/20 08:52:40;;;;;;;14.00;7.10;;;;;;;12.77;63.70;100221.04;107394;1265;61716;-77
2023/01/20 08:55:08;;;;;;;17.70;7.10;;;;;;;12.77;63.55;100221.95;107446;1266;59583;-75
2023/01/20 08:57:35;;;;;;;15.80;6.60;;;;;;;12.78;63.51;100214.11;107439;1266;71378;-75
2023/01/20 09:00:04;;;;;;;15.00;6.70;;;;;;;12.80;63.47;100211.25;107449;1266;73031;-75
2023/01/20 09:02:31;;;;;;;13.80;6.50;;;;;;;12.82;63.41;100211.98;107393;1269;73219;-75
2023/01/20 09:04:58;;;;;;;17.20;6.50;;;;;;;12.83;63.38;100211.02;107417;1264;61492;-75
2023/01/20 09:07:26;;;;;;;16.80;6.90;;;;;;;12.83;63.39;100209.77;107402;1266;59988;-74
2023/01/20 09:09:53;;;;;;;17.80;7.00;;;;;;;12.84;63.30;100213.64;107411;1266;72446;-74
2023/01/20 09:12:20;;;;;;;13.40;7.20;;;;;;;12.86;63.12;100213.98;107344;1266;74288;-74
2023/01/20 09:14:47;;;;;;;16.60;6.50;;;;;;;12.86;62.93;100217.64;107389;1267;74226;-75
2023/01/20 09:17:14;;;;;;;16.80;6.60;;;;;;;12.87;62.89;100214.42;107373;1265;60551;-75
2023/01/20 09:19:41;;;;;;;18.50;6.60;;;;;;;12.88;62.77;100212.27;107316;1266;60691;-74
2023/01/20 09:22:08;;;;;;;13.20;6.00;;;;;;;12.89;62.68;100218.25;107386;1266;74936;-75
2023/01/20 09:24:35;;;;;;;13.20;6.00;;;;;;;12.90;62.66;100215.14;107397;1267;73716;-75
2023/01/20 09:27:02;;;;;;;15.70;6.20;;;;;;;12.93;62.57;100212.13;107352;1266;72592;-75
2023/01/20 09:29:29;;;;;;;15.90;6.80;;;;;;;12.95;62.45;100212.80;107375;1266;62506;-75
2023/01/20 09:31:59;;;;;;;16.80;6.80;;;;;;;12.98;62.33;100214.83;107389;1266;62168;-75
2023/01/20 09:34:28;;;;;;;13.60;5.90;;;;;;;12.99;62.33;100219.04;107481;1266;72062;-76
2023/01/20 09:36:57;;;;;;;13.90;5.90;;;;;;;13.04;62.47;100224.41;107409;1267;72850;-77
2023/01/20 09:45:31;;;;;;;14.40;6.20;;;;;;;13.29;62.33;100219.77;107197;1270;60862;-75
2023/01/20 09:53:59;;;;;;;19.30;6.60;;;;;;;13.52;61.66;100227.09;107220;1275;75019;-77
2023/01/20 09:56:26;;;;;;;12.40;5.70;;;;;;;13.56;61.48;100220.77;107261;1265;62507;-75
2023/01/20 09:59:01;;;;;;;11.80;5.60;;;;;;;13.64;61.44;100221.02;107414;1266;61187;-76
2023/01/20 10:01:37;;;;;;;13.30;5.40;;;;;;;13.76;61.38;100218.14;107431;1265;76063;-76
2023/01/20 10:04:11;;;;;;;12.70;5.80;;;;;;;13.89;61.24;100215.09;107438;1265;73062;-75
2023/01/20 10:06:56;;;;;;;15.00;6.40;;;;;;;14.05;61.20;100215.43;107423;1266;72596;-76
2023/01/20 10:09:35;;;;;;;15.80;6.30;;;;;;;14.27;60.99;100214.93;107416;1263;64148;-76
2023/01/20 10:12:10;;;;;;;13.50;7.10;;;;;;;14.49;60.55;100215.98;107423;1263;61335;-76
2023/01/20 10:14:53;;;;;;;14.70;6.00;;;;;;;14.69;60.19;100216.55;107536;1263;74043;-75
2023/01/20 10:17:29;;;;;;;12.50;5.60;;;;;;;14.90;59.58;100214.52;107587;1260;71997;-75
2023/01/20 10:20:14;;;;;;;18.50;7.10;;;;;;;15.03;58.93;100215.48;107601;1260;75249;-76
2023/01/20 10:22:45;;;;;;;11.60;6.30;;;;;;;15.12;58.45;100210.91;107514;1260;61767;-75
2023/01/20 10:25:26;;;;;;;18.40;7.30;;;;;;;15.18;58.24;100212.20;107529;1260;60986;-76
2023/01/20 10:27:55;;;;;;;13.10;6.30;;;;;;;15.24;57.86;100206.70;107623;1260;74096;-76
2023/01/20 10:30:25;;;;;;;12.90;6.00;;;;;;;15.27;57.66;100201.61;107802;1260;75323;-75
2023/01/20 10:33:08;;;;;;;13.30;5.80;;;;;;;15.29;57.49;100202.38;107685;1260;74725;-74
2023/01/20 10:35:50;;;;;;;13.60;6.00;;;;;;;15.21;57.68;100203.44;107641;1260;61465;-75
2023/01/20 10:38:20;;;;;;;13.30;6.00;;;;;;;15.19;57.46;100212.39;107579;1260;61191;-74
2023/01/20 10:40:54;;;;;;;12.10;6.30;;;;;;;15.15;57.43;100215.16;107567;1260;76352;-75
2023/01/20 10:43:21;;;;;;;12.80;6.40;;;;;;;15.11;57.42;100209.52;107599;1260;74441;-76
2023/01/20 10:46:16;;;;;;;14.90;6.00;;;;;;;15.06;57.45;100217.08;107916;1256;73255;-75
2023/01/20 10:49:17;;;;;;;12.70;6.30;;;;;;;14.98;57.60;100220.66;107909;1256;62085;-76
2023/01/20 10:51:46;;;;;;;14.30;6.70;;;;;;;15.00;57.78;100217.89;107996;1256;62518;-74
2023/01/20 10:54:36;;;;;;;12.00;6.20;;;;;;;15.12;57.63;100211.44;108093;1257;73764;-76
2023/01/20 10:57:03;;;;;;;13.00;6.00;;;;;;;15.15;57.48;100210.77;107941;1257;74419;-76
2023/01/20 10:59:43;;;;;;;13.80;5.70;;;;;;;15.15;57.52;100213.97;107834;1256;72833;-76
2023/01/20 11:02:24;;;;;;;11.20;5.60;;;;;;;15.18;57.53;100210.37;107870;1256;60297;-77
2023/01/20 11:05:18;;;;;;;14.70;6.20;;;;;;;15.19;57.45;100210.17;107952;1256;62253;-77
2023/01/20 11:07:45;;;;;;;13.00;6.00;;;;;;;15.20;57.50;100210.27;107947;1256;76142;-77
2023/01/20 11:10:20;;;;;;;14.70;6.30;;;;;;;15.25;57.52;100212.60;107732;1257;72899;-77
2023/01/20 11:12:50;;;;;;;14.30;6.10;;;;;;;15.32;57.45;100212.66;107854;1256;74912;-76
2023/01/20 11:15:21;;;;;;;11.30;5.80;;;;;;;15.33;57.51;100205.04;107883;1257;63721;-76
2023/01/20 11:18:14;;;;;;;8.70;4.60;;;;;;;15.38;57.56;100202.86;107911;1257;60556;-77
2023/01/20 11:20:46;;;;;;;12.60;5.20;;;;;;;15.41;57.21;100197.80;107968;1256;75898;-76
2023/01/20 11:23:38;;;;;;;11.70;5.60;;;;;;;15.40;57.22;100199.52;107882;1256;75094;-76
2023/01/20 11:26:24;;;;;;;10.80;5.50;;;;;;;15.43;57.26;100196.30;107877;1256;73894;-75
2023/01/20 11:28:57;;;;;;;11.20;5.60;;;;;;;15.47;57.16;100194.52;107793;1256;62399;-77
2023/01/20 11:32:02;;;;;;;10.90;5.40;;;;;;;15.47;57.08;100195.25;107873;1256;60245;-76
2023/01/20 11:34:34;;;;;;;8.90;4.50;;;;;;;15.45;57.09;100203.30;107453;1262;73695;-76
2023/01/20 11:37:04;;;;;;;11.20;5.30;;;;;;;15.48;57.12;100204.88;107353;1262;73179;-77
2023/01/20 11:39:43;;;;;;;9.40;5.10;;;;;;;15.49;56.98;100210.83;107638;1257;70837;-76
2023/01/20 11:42:15;;;;;;;9.80;4.90;;;;;;;15.51;57.00;100216.56;107892;1256;60313;-76
2023/01/20 11:45:00;;;;;;;9.10;5.70;;;;;;;15.55;56.89;100218.79;107906;1256;61553;-77
2023/01/20 11:48:18;;;;;;;11.90;5.40;;;;;;;15.61;56.95;100215.89;107849;1256;73686;-77
2023/01/20 11:50:57;;;;;;;10.30;5.50;;;;;;;15.67;56.69;100215.91;107890;1256;72741;-76
2023/01/20 11:53:25;;;;;;;12.40;4.80;;;;;;;15.70;56.69;100217.30;107925;1257;73762;-76
2023/01/20 11:55:58;;;;;;;10.70;5.20;;;;;;;15.73;56.52;100216.61;107937;1256;60969;-76
2023/01/20 11:58:26;;;;;;;;;;;;;;;15.72;56.33;100221.52;107924;1256;60341;-77